sensor_id;sensor_type;location;lat;lon;timestamp;temperature;humidity
72638;DHT22;60681;50.308;8.972;2022-08-21T00:02:02;19.20;68.70
72638;DHT22;60681;50.308;8.972;2022-08-21T00:04:30;19.20;68.80
72638;DHT22;60681;50.308;8.972;2022-08-21T00:06:56;19.20;69.50
72638;DHT22;60681;50.308;8.972;2022-08-21T00:09:22;19.10;70.30
72638;DHT22;60681;50.308;8.972;2022-08-21T00:11:48;19.10;70.00
72638;DHT22;60681;50.308;8.972;2022-08-21T00:14:14;19.10;70.30
72638;DHT22;60681;50.308;8.972;2022-08-21T00:16:40;19.10;69.60
72638;DHT22;60681;50.308;8.972;2022-08-21T00:19:06;19.10;69.30
72638;DHT22;60681;50.308;8.972;2022-08-21T00:21:33;19.00;69.50
72638;DHT22;60681;50.308;8.972;2022-08-21T00:23:59;19.00;70.00
72638;DHT22;60681;50.308;8.972;2022-08-21T00:26:25;19.00;70.60
72638;DHT22;60681;50.308;8.972;2022-08-21T00:28:51;19.00;70.80
72638;DHT22;60681;50.308;8.972;2022-08-21T00:31:17;18.90;71.30
72638;DHT22;60681;50.308;8.972;2022-08-21T00:33:43;18.90;71.90
72638;DHT22;60681;50.308;8.972;2022-08-21T00:36:09;18.90;72.00
72638;DHT22;60681;50.308;8.972;2022-08-21T00:38:36;18.90;71.90
72638;DHT22;60681;50.308;8.972;2022-08-21T00:41:06;18.80;71.70
72638;DHT22;60681;50.308;8.972;2022-08-21T00:43:34;18.70;72.80
72638;DHT22;60681;50.308;8.972;2022-08-21T00:46:00;18.60;72.40
72638;DHT22;60681;50.308;8.972;2022-08-21T00:48:26;18.60;72.20
72638;DHT22;60681;50.308;8.972;2022-08-21T00:51:07;18.60;72.30
72638;DHT22;60681;50.308;8.972;2022-08-21T00:53:36;18.50;72.20
72638;DHT22;60681;50.308;8.972;2022-08-21T00:56:04;18.50;73.70
72638;DHT22;60681;50.308;8.972;2022-08-21T00:58:31;18.40;74.20
72638;DHT22;60681;50.308;8.972;2022-08-21T01:00:59;18.40;74.30
72638;DHT22;60681;50.308;8.972;2022-08-21T01:03:26;18.30;74.00
72638;DHT22;60681;50.308;8.972;2022-08-21T01:05:52;18.20;74.40
72638;DHT22;60681;50.308;8.972;2022-08-21T01:08:19;18.10;74.10
72638;DHT22;60681;50.308;8.972;2022-08-21T01:10:46;18.10;74.80
72638;DHT22;60681;50.308;8.972;2022-08-21T01:13:14;18.00;73.30
72638;DHT22;60681;50.308;8.972;2022-08-21T01:15:43;17.90;73.70
72638;DHT22;60681;50.308;8.972;2022-08-21T01:18:10;17.90;74.40
72638;DHT22;60681;50.308;8.972;2022-08-21T01:20:37;17.80;75.10
72638;DHT22;60681;50.308;8.972;2022-08-21T01:23:05;17.70;74.80
72638;DHT22;60681;50.308;8.972;2022-08-21T01:25:32;17.60;74.50
72638;DHT22;60681;50.308;8.972;2022-08-21T01:28:02;17.50;75.10
72638;DHT22;60681;50.308;8.972;2022-08-21T01:30:31;17.50;75.00
72638;DHT22;60681;50.308;8.972;2022-08-21T01:32:59;17.40;75.70
72638;DHT22;60681;50.308;8.972;2022-08-21T01:35:24;17.40;75.10
72638;DHT22;60681;50.308;8.972;2022-08-21T01:37:50;17.20;76.50
72638;DHT22;60681;50.308;8.972;2022-08-21T01:40:16;17.20;76.20
72638;DHT22;60681;50.308;8.972;2022-08-21T01:42:43;17.10;75.70
72638;DHT22;60681;50.308;8.972;2022-08-21T01:45:10;17.10;75.60
72638;DHT22;60681;50.308;8.972;2022-08-21T01:47:36;17.20;75.90
72638;DHT22;60681;50.308;8.972;2022-08-21T01:50:04;17.10;76.80
72638;DHT22;60681;50.308;8.972;2022-08-21T01:52:31;16.90;76.50
72638;DHT22;60681;50.308;8.972;2022-08-21T01:54:56;16.90;76.50
72638;DHT22;60681;50.308;8.972;2022-08-21T01:57:22;16.80;77.10
72638;DHT22;60681;50.308;8.972;2022-08-21T01:59:48;16.80;76.90
72638;DHT22;60681;50.308;8.972;2022-08-21T02:02:14;16.70;77.00
72638;DHT22;60681;50.308;8.972;2022-08-21T02:04:39;16.70;77.80
72638;DHT22;60681;50.308;8.972;2022-08-21T02:07:05;16.60;77.40
72638;DHT22;60681;50.308;8.972;2022-08-21T02:09:31;16.60;77.50
72638;DHT22;60681;50.308;8.972;2022-08-21T02:11:57;16.50;78.10
72638;DHT22;60681;50.308;8.972;2022-08-21T02:14:22;16.40;79.40
72638;DHT22;60681;50.308;8.972;2022-08-21T02:16:48;16.40;78.90
72638;DHT22;60681;50.308;8.972;2022-08-21T02:19:15;16.40;79.40
72638;DHT22;60681;50.308;8.972;2022-08-21T02:21:42;16.30;80.30
72638;DHT22;60681;50.308;8.972;2022-08-21T02:24:08;16.30;78.80
72638;DHT22;60681;50.308;8.972;2022-08-21T02:26:34;16.20;79.80
72638;DHT22;60681;50.308;8.972;2022-08-21T02:29:00;16.20;79.00
72638;DHT22;60681;50.308;8.972;2022-08-21T02:31:26;16.10;79.10
72638;DHT22;60681;50.308;8.972;2022-08-21T02:33:52;16.10;78.80
72638;DHT22;60681;50.308;8.972;2022-08-21T02:36:18;16.10;78.70
72638;DHT22;60681;50.308;8.972;2022-08-21T02:38:44;16.00;79.10
72638;DHT22;60681;50.308;8.972;2022-08-21T02:41:15;16.00;79.50
72638;DHT22;60681;50.308;8.972;2022-08-21T02:43:42;15.80;79.90
72638;DHT22;60681;50.308;8.972;2022-08-21T02:46:09;15.80;80.30
72638;DHT22;60681;50.308;8.972;2022-08-21T02:48:36;15.70;80.00
72638;DHT22;60681;50.308;8.972;2022-08-21T06:26:29;29.00;47.70
72638;DHT22;60681;50.308;8.972;2022-08-21T06:28:56;28.70;47.80
72638;DHT22;60681;50.308;8.972;2022-08-21T06:31:25;28.60;47.00
72638;DHT22;60681;50.308;8.972;2022-08-21T06:33:52;28.70;47.70
72638;DHT22;60681;50.308;8.972;2022-08-21T10:25:41;27.30;41.40
